Kahoka, Missouri
Current Conditions -  °F | °C
As of 7:35 PM on Friday 26 Dec 2014 (Local Time) from KEOK Reporting Station
Overcast Overcast  
Wind Chill: 10°   Ceiling: 6000
Heat Index: 10°   Visibility: 10mi
Dew Point:   Wind: 6mph
Humidity: 76%   Direction: 120°ESE
Pressure: 29.95"   Gusts: NA
Location:  40.42°N, 91.72°W
Report Text: KEOK 270135Z AUTO 12005KT 10SM OVC060 10/06 A2995 RMK AO2
Loading
Personal Weather Stations






























Interactive Weather Map New forecast layout! Learn more

10-Day Weather Forecast

Advertisements
Track Severe Weather on mobile